Share

Summersville, WV

KWVMTNEB2 Elev 2195 ft | 38.14 °N, 80.85 °W | Change Station

Current weather conditions updated 5 seconds ago

Clear
Clear
58.7 °F
Feels Like 58.7 °F
N
0.0
Wind Variable Wind from North
Gusts 0.0 mph
Sunrise 6:43 AM
Sunset 8:02 PM
Moon Waning Gibbous

Tomorrow is forecast to be nearly the same temperature as today.

Pressure 30.23 in
Visibility 10.0 miles
Clouds Clear
Dew Point 32 °F
Humidity 37%
Rainfall 0.00 in
Snow Depth Not available.
UV 0 out of 16
Pollen 10.00 out of 12
Air Quality Not available.
Flu Activity Sporadic
METAR KBKW 182351Z AUTO 16006KT 10SM CLR 14/00 A3023 RMK AO2 SLP236 T01440000 10178 20144 56002 TSNO

More Conditions Fewer Conditions

Pressure 30.23 in
Visibility 10.0 miles
Clouds Clear
Dew Point 32 °F
Humidity 37%
Rainfall 0.00 in
Snow Depth Not available.
UV 0 out of 16
Pollen 10.00 out of 12
Air Quality Not available.
Flu Activity Sporadic
METAR KBKW 182351Z AUTO 16006KT 10SM CLR 14/00 A3023 RMK AO2 SLP236 T01440000 10178 20144 56002 TSNO

More Conditions Fewer Conditions

10-Day Weather Forecast

Almanac

Astronomy

Apr. 18, 2014 Rise Set
Actual Time 6:43 AM EDT 8:02 PM EDT
Civil Twilight 6:15 AM EDT 8:30 PM EDT
Nautical Twilight 5:43 AM EDT 9:03 PM EDT
Astronomical Twilight 5:08 AM EDT 9:37 PM EDT
Moon 11:44 PM EDT (4/18) 9:06 AM EDT (4/18)
Length of Visible Light 14h 14m
Length of Day
13h 19m
Tomorrow will be 2m 18s longer.
Waning Gibbous, 84% of the Moon is Illuminated
Today
Waning Gibbous
Apr 22
Last Quarter
Apr 29
New
May 6
First Quarter
May 14
Full

Today's Extremes

State Highs State Lows

Community

  • Spring Chickadee
    Spring Chickadee
  • What's for Lunch?
    What's for Lunch?
  • SUNRISE THROUGH THE TREES.
    SUNRISE THROUGH THE TREES.
  • Dog Wood Blossoms
    Dog Wood Blossoms
  • Morning Light
    Morning Light

WunderPhotos

Upload Photos

1,702,546 photos uploaded!

WunderBlogs® & News

By Dr. Jeff Masters
Director of Meteorology, Weather Underground
By Kari Strenfel
Meteorologist, Weather Underground
By Christopher C. Burt
Weather Historian, Weather Underground
April 18, 2014
April 18, 2014
April 18, 2014

Nearby

Snow Depth

Station Depth Elevation
No new snow has been reported.

Coastal Water Temperatures

Place Temperature
No Stations Reporting

Earthquake Activity

City Distance Mag. Time & Date
No recent earthquake activity has been reported nearby.
Minimum magnitude displayed is 2.5.

Nearby Weather Stations

Station Location Temp. Dew Point Humidity Wind Precip. Elev Updated Type
Mt Nebo, WV 58.7 °F 32 °F 37% North  at  0.0 mph 0.00 in / hr 2195 ft 8:03 PM EDT Rapid Fire
., Gauley Bridge, WV 66.4 °F 36 °F 32% South  at  0.0 mph 0.00 in / hr 804 ft 7:59 PM EDT Normal
Glen Ferris, WV 63.9 °F 43 °F 47% East  at  0.0 mph 0.00 in / hr 676 ft 8:01 PM EDT Normal

Show More Stations Show Fewer Stations

What do you think?

We're not finished. Please let us know what you like, what you don't like, and what you are still missing.